sensor_id;sensor_type;location;lat;lon;timestamp;temperature;humidity
69626;DHT22;56847;51.984;5.088;2022-08-19T00:02:03;22.40;66.20
69626;DHT22;56847;51.984;5.088;2022-08-19T00:04:43;22.40;66.30
69626;DHT22;56847;51.984;5.088;2022-08-19T00:07:31;22.40;66.30
69626;DHT22;56847;51.984;5.088;2022-08-19T00:10:12;22.40;66.30
69626;DHT22;56847;51.984;5.088;2022-08-19T00:13:13;22.30;66.40
69626;DHT22;56847;51.984;5.088;2022-08-19T00:16:17;22.30;66.50
69626;DHT22;56847;51.984;5.088;2022-08-19T00:19:07;22.30;66.60
69626;DHT22;56847;51.984;5.088;2022-08-19T00:21:54;22.20;66.70
69626;DHT22;56847;51.984;5.088;2022-08-19T00:24:57;22.20;66.70
69626;DHT22;56847;51.984;5.088;2022-08-19T00:28:08;22.20;66.90
69626;DHT22;56847;51.984;5.088;2022-08-19T00:30:43;22.10;66.80
69626;DHT22;56847;51.984;5.088;2022-08-19T00:33:24;22.10;66.80
69626;DHT22;56847;51.984;5.088;2022-08-19T00:36:34;22.10;66.90
69626;DHT22;56847;51.984;5.088;2022-08-19T00:39:55;22.10;66.90
69626;DHT22;56847;51.984;5.088;2022-08-19T00:42:46;22.10;67.00
69626;DHT22;56847;51.984;5.088;2022-08-19T00:45:37;22.00;67.00
69626;DHT22;56847;51.984;5.088;2022-08-19T00:48:32;22.00;67.10
69626;DHT22;56847;51.984;5.088;2022-08-19T00:51:12;22.00;67.10
69626;DHT22;56847;51.984;5.088;2022-08-19T00:53:59;21.90;67.10
69626;DHT22;56847;51.984;5.088;2022-08-19T00:56:43;21.90;67.20
69626;DHT22;56847;51.984;5.088;2022-08-19T00:59:45;21.90;67.30
69626;DHT22;56847;51.984;5.088;2022-08-19T01:02:57;21.90;67.50
69626;DHT22;56847;51.984;5.088;2022-08-19T01:09:35;21.80;67.50
69626;DHT22;56847;51.984;5.088;2022-08-19T01:16:19;21.70;67.50
69626;DHT22;56847;51.984;5.088;2022-08-19T01:19:51;21.70;67.70
69626;DHT22;56847;51.984;5.088;2022-08-19T01:27:16;21.60;67.80
69626;DHT22;56847;51.984;5.088;2022-08-19T01:30:47;21.60;67.80
69626;DHT22;56847;51.984;5.088;2022-08-19T01:33:56;21.50;67.90
69626;DHT22;56847;51.984;5.088;2022-08-19T01:37:03;21.50;67.80
69626;DHT22;56847;51.984;5.088;2022-08-19T01:40:00;21.50;68.00
69626;DHT22;56847;51.984;5.088;2022-08-19T01:42:51;21.50;67.90
69626;DHT22;56847;51.984;5.088;2022-08-19T01:46:00;21.50;68.00
69626;DHT22;56847;51.984;5.088;2022-08-19T01:48:39;21.40;68.00
69626;DHT22;56847;51.984;5.088;2022-08-19T01:51:27;21.40;68.10
69626;DHT22;56847;51.984;5.088;2022-08-19T01:54:21;21.40;68.20
69626;DHT22;56847;51.984;5.088;2022-08-19T01:57:32;21.40;68.30
69626;DHT22;56847;51.984;5.088;2022-08-19T02:00:36;21.40;68.30
69626;DHT22;56847;51.984;5.088;2022-08-19T02:03:31;21.30;68.30
69626;DHT22;56847;51.984;5.088;2022-08-19T02:06:22;21.30;68.40
69626;DHT22;56847;51.984;5.088;2022-08-19T02:09:12;21.30;68.50
69626;DHT22;56847;51.984;5.088;2022-08-19T02:12:22;21.30;68.60
69626;DHT22;56847;51.984;5.088;2022-08-19T02:15:06;21.20;68.60
69626;DHT22;56847;51.984;5.088;2022-08-19T02:17:49;21.20;68.70
69626;DHT22;56847;51.984;5.088;2022-08-19T02:20:44;21.20;68.90
69626;DHT22;56847;51.984;5.088;2022-08-19T02:23:50;21.10;69.30
69626;DHT22;56847;51.984;5.088;2022-08-19T02:26:45;21.10;69.30
69626;DHT22;56847;51.984;5.088;2022-08-19T02:34:02;21.10;69.70
69626;DHT22;56847;51.984;5.088;2022-08-19T02:37:05;21.00;69.60
69626;DHT22;56847;51.984;5.088;2022-08-19T02:40:39;21.00;69.90
69626;DHT22;56847;51.984;5.088;2022-08-19T02:43:58;21.00;69.80
69626;DHT22;56847;51.984;5.088;2022-08-19T02:47:06;21.00;69.80
69626;DHT22;56847;51.984;5.088;2022-08-19T02:50:06;21.00;69.80
69626;DHT22;56847;51.984;5.088;2022-08-19T02:52:59;21.00;69.60
69626;DHT22;56847;51.984;5.088;2022-08-19T02:55:45;21.00;69.60
69626;DHT22;56847;51.984;5.088;2022-08-19T02:58:52;21.00;69.70
69626;DHT22;56847;51.984;5.088;2022-08-19T03:01:45;21.00;69.70
69626;DHT22;56847;51.984;5.088;2022-08-19T03:04:33;20.90;69.70
69626;DHT22;56847;51.984;5.088;2022-08-19T03:07:48;20.90;69.60
69626;DHT22;56847;51.984;5.088;2022-08-19T03:17:42;20.90;69.80
69626;DHT22;56847;51.984;5.088;2022-08-19T03:20:57;20.80;69.80
69626;DHT22;56847;51.984;5.088;2022-08-19T03:23:57;20.80;69.90
69626;DHT22;56847;51.984;5.088;2022-08-19T03:26:43;20.80;69.90
69626;DHT22;56847;51.984;5.088;2022-08-19T03:29:29;20.70;70.10
69626;DHT22;56847;51.984;5.088;2022-08-19T03:32:18;20.70;70.20
69626;DHT22;56847;51.984;5.088;2022-08-19T03:35:32;20.70;70.20
69626;DHT22;56847;51.984;5.088;2022-08-19T03:38:52;20.70;70.20
69626;DHT22;56847;51.984;5.088;2022-08-19T03:41:57;20.70;70.20
69626;DHT22;56847;51.984;5.088;2022-08-19T03:45:07;20.70;70.20
69626;DHT22;56847;51.984;5.088;2022-08-19T03:48:11;20.70;70.20
69626;DHT22;56847;51.984;5.088;2022-08-19T03:54:49;20.70;70.40
69626;DHT22;56847;51.984;5.088;2022-08-19T03:58:20;20.60;70.40
69626;DHT22;56847;51.984;5.088;2022-08-19T04:05:38;20.60;70.60
69626;DHT22;56847;51.984;5.088;2022-08-19T04:08:39;20.50;70.60
69626;DHT22;56847;51.984;5.088;2022-08-19T04:11:35;20.50;70.50
69626;DHT22;56847;51.984;5.088;2022-08-19T04:14:18;20.50;70.70
69626;DHT22;56847;51.984;5.088;2022-08-19T04:16:54;20.50;70.80
69626;DHT22;56847;51.984;5.088;2022-08-19T04:19:22;20.50;70.90
69626;DHT22;56847;51.984;5.088;2022-08-19T04:21:52;20.50;71.00
69626;DHT22;56847;51.984;5.088;2022-08-19T04:24:19;20.50;71.10
69626;DHT22;56847;51.984;5.088;2022-08-19T04:26:47;20.50;71.10
69626;DHT22;56847;51.984;5.088;2022-08-19T04:29:19;20.50;71.10
69626;DHT22;56847;51.984;5.088;2022-08-19T04:31:49;20.50;71.20
69626;DHT22;56847;51.984;5.088;2022-08-19T04:34:18;20.50;71.10
69626;DHT22;56847;51.984;5.088;2022-08-19T04:36:49;20.50;71.10
69626;DHT22;56847;51.984;5.088;2022-08-19T04:39:25;20.50;71.20
69626;DHT22;56847;51.984;5.088;2022-08-19T04:42:11;20.50;71.20
69626;DHT22;56847;51.984;5.088;2022-08-19T04:44:57;20.30;71.60
69626;DHT22;56847;51.984;5.088;2022-08-19T04:47:25;20.30;71.90
69626;DHT22;56847;51.984;5.088;2022-08-19T04:50:13;20.30;72.20
69626;DHT22;56847;51.984;5.088;2022-08-19T04:52:44;20.30;72.60
69626;DHT22;56847;51.984;5.088;2022-08-19T04:55:12;20.30;72.70
69626;DHT22;56847;51.984;5.088;2022-08-19T04:57:40;20.30;72.80
69626;DHT22;56847;51.984;5.088;2022-08-19T05:00:09;20.20;72.90
69626;DHT22;56847;51.984;5.088;2022-08-19T05:02:37;20.20;73.00
69626;DHT22;56847;51.984;5.088;2022-08-19T05:05:05;20.20;73.10
69626;DHT22;56847;51.984;5.088;2022-08-19T05:07:33;20.20;73.20
69626;DHT22;56847;51.984;5.088;2022-08-19T05:10:00;20.20;73.30
69626;DHT22;56847;51.984;5.088;2022-08-19T05:12:27;20.20;73.60
69626;DHT22;56847;51.984;5.088;2022-08-19T05:14:56;20.20;73.80
69626;DHT22;56847;51.984;5.088;2022-08-19T05:17:25;20.30;74.00
69626;DHT22;56847;51.984;5.088;2022-08-19T05:19:56;20.30;74.30
69626;DHT22;56847;51.984;5.088;2022-08-19T05:22:44;20.30;74.40
69626;DHT22;56847;51.984;5.088;2022-08-19T05:25:18;20.30;74.50
69626;DHT22;56847;51.984;5.088;2022-08-19T05:27:49;20.30;74.60
69626;DHT22;56847;51.984;5.088;2022-08-19T05:30:16;20.30;74.80
69626;DHT22;56847;51.984;5.088;2022-08-19T05:32:44;20.30;74.90
69626;DHT22;56847;51.984;5.088;2022-08-19T05:35:11;20.40;74.90
69626;DHT22;56847;51.984;5.088;2022-08-19T05:37:38;20.40;75.00
69626;DHT22;56847;51.984;5.088;2022-08-19T05:40:08;20.50;75.00
69626;DHT22;56847;51.984;5.088;2022-08-19T05:42:35;20.70;75.00
69626;DHT22;56847;51.984;5.088;2022-08-19T05:45:02;20.80;74.70
69626;DHT22;56847;51.984;5.088;2022-08-19T05:47:30;20.90;74.50
69626;DHT22;56847;51.984;5.088;2022-08-19T05:49:57;21.00;74.50
69626;DHT22;56847;51.984;5.088;2022-08-19T05:52:24;21.10;74.40
69626;DHT22;56847;51.984;5.088;2022-08-19T05:54:53;21.20;74.30
69626;DHT22;56847;51.984;5.088;2022-08-19T05:57:23;21.20;74.10
69626;DHT22;56847;51.984;5.088;2022-08-19T05:59:51;21.30;74.00
69626;DHT22;56847;51.984;5.088;2022-08-19T06:02:31;21.40;73.70
69626;DHT22;56847;51.984;5.088;2022-08-19T06:04:58;21.50;73.60
69626;DHT22;56847;51.984;5.088;2022-08-19T06:07:25;21.50;73.40
69626;DHT22;56847;51.984;5.088;2022-08-19T06:09:52;21.50;73.40
69626;DHT22;56847;51.984;5.088;2022-08-19T06:12:32;21.60;73.20
69626;DHT22;56847;51.984;5.088;2022-08-19T06:15:07;21.60;73.20
69626;DHT22;56847;51.984;5.088;2022-08-19T06:17:35;21.60;73.10
69626;DHT22;56847;51.984;5.088;2022-08-19T06:20:07;21.60;73.00
69626;DHT22;56847;51.984;5.088;2022-08-19T06:22:44;21.60;73.20
69626;DHT22;56847;51.984;5.088;2022-08-19T06:25:14;21.60;73.10
69626;DHT22;56847;51.984;5.088;2022-08-19T06:27:41;21.60;73.20
69626;DHT22;56847;51.984;5.088;2022-08-19T06:30:28;21.50;73.20
69626;DHT22;56847;51.984;5.088;2022-08-19T06:32:56;21.50;73.40
69626;DHT22;56847;51.984;5.088;2022-08-19T06:35:22;21.50;73.40
69626;DHT22;56847;51.984;5.088;2022-08-19T06:37:49;21.60;73.60
69626;DHT22;56847;51.984;5.088;2022-08-19T06:40:16;21.70;73.60
69626;DHT22;56847;51.984;5.088;2022-08-19T06:42:44;21.80;73.40
69626;DHT22;56847;51.984;5.088;2022-08-19T06:45:22;21.90;73.20
69626;DHT22;56847;51.984;5.088;2022-08-19T06:47:59;21.90;73.10
69626;DHT22;56847;51.984;5.088;2022-08-19T06:50:27;22.00;73.00
69626;DHT22;56847;51.984;5.088;2022-08-19T06:52:54;22.10;73.10
69626;DHT22;56847;51.984;5.088;2022-08-19T06:55:21;22.20;72.80
69626;DHT22;56847;51.984;5.088;2022-08-19T06:57:49;22.30;72.50
69626;DHT22;56847;51.984;5.088;2022-08-19T07:00:20;22.40;72.20
69626;DHT22;56847;51.984;5.088;2022-08-19T07:02:47;22.50;72.10
69626;DHT22;56847;51.984;5.088;2022-08-19T07:05:22;22.60;71.90
69626;DHT22;56847;51.984;5.088;2022-08-19T07:07:50;22.80;72.00
69626;DHT22;56847;51.984;5.088;2022-08-19T07:10:17;23.00;71.80
69626;DHT22;56847;51.984;5.088;2022-08-19T07:12:46;23.20;71.30
69626;DHT22;56847;51.984;5.088;2022-08-19T07:15:15;23.30;70.70
69626;DHT22;56847;51.984;5.088;2022-08-19T07:17:44;23.40;70.10
69626;DHT22;56847;51.984;5.088;2022-08-19T07:20:18;23.40;70.30
69626;DHT22;56847;51.984;5.088;2022-08-19T07:22:44;23.50;69.60
69626;DHT22;56847;51.984;5.088;2022-08-19T07:25:12;23.60;69.30
69626;DHT22;56847;51.984;5.088;2022-08-19T07:27:40;23.60;69.00
69626;DHT22;56847;51.984;5.088;2022-08-19T07:30:11;23.60;69.00
69626;DHT22;56847;51.984;5.088;2022-08-19T07:32:39;23.60;69.10
69626;DHT22;56847;51.984;5.088;2022-08-19T07:35:07;23.80;69.20
69626;DHT22;56847;51.984;5.088;2022-08-19T07:37:34;23.90;68.90
69626;DHT22;56847;51.984;5.088;2022-08-19T07:40:04;24.00;68.10
69626;DHT22;56847;51.984;5.088;2022-08-19T07:42:31;24.10;68.00
69626;DHT22;56847;51.984;5.088;2022-08-19T07:44:58;24.10;67.70
69626;DHT22;56847;51.984;5.088;2022-08-19T07:47:25;24.10;67.60
69626;DHT22;56847;51.984;5.088;2022-08-19T07:50:12;24.10;67.30
69626;DHT22;56847;51.984;5.088;2022-08-19T07:52:39;24.10;67.30
69626;DHT22;56847;51.984;5.088;2022-08-19T07:55:09;24.10;67.10
69626;DHT22;56847;51.984;5.088;2022-08-19T07:57:56;24.00;67.20
69626;DHT22;56847;51.984;5.088;2022-08-19T08:00:23;23.90;67.30
69626;DHT22;56847;51.984;5.088;2022-08-19T08:02:52;24.00;67.50
69626;DHT22;56847;51.984;5.088;2022-08-19T08:05:22;24.00;67.30
69626;DHT22;56847;51.984;5.088;2022-08-19T08:08:13;24.00;67.20
69626;DHT22;56847;51.984;5.088;2022-08-19T08:10:59;23.90;67.10
69626;DHT22;56847;51.984;5.088;2022-08-19T08:13:27;23.90;67.40
69626;DHT22;56847;51.984;5.088;2022-08-19T08:15:55;23.90;67.30
69626;DHT22;56847;51.984;5.088;2022-08-19T08:18:25;23.90;67.30
69626;DHT22;56847;51.984;5.088;2022-08-19T08:20:57;24.00;67.30
69626;DHT22;56847;51.984;5.088;2022-08-19T08:23:25;24.10;67.00
69626;DHT22;56847;51.984;5.088;2022-08-19T08:25:55;24.30;66.50
69626;DHT22;56847;51.984;5.088;2022-08-19T08:28:24;24.30;66.50
69626;DHT22;56847;51.984;5.088;2022-08-19T08:30:51;24.50;66.40
69626;DHT22;56847;51.984;5.088;2022-08-19T08:33:24;24.70;66.20
69626;DHT22;56847;51.984;5.088;2022-08-19T08:36:08;24.90;66.10
69626;DHT22;56847;51.984;5.088;2022-08-19T08:38:36;25.10;65.50
69626;DHT22;56847;51.984;5.088;2022-08-19T08:43:53;25.70;64.30
69626;DHT22;56847;51.984;5.088;2022-08-19T08:46:45;25.70;64.00
69626;DHT22;56847;51.984;5.088;2022-08-19T08:49:25;25.70;63.10
69626;DHT22;56847;51.984;5.088;2022-08-19T08:52:30;25.70;63.10
69626;DHT22;56847;51.984;5.088;2022-08-19T08:55:03;25.60;63.10
69626;DHT22;56847;51.984;5.088;2022-08-19T09:00:18;25.60;63.50
69626;DHT22;56847;51.984;5.088;2022-08-19T09:02:46;25.70;63.00
69626;DHT22;56847;51.984;5.088;2022-08-19T09:05:18;25.70;63.20
69626;DHT22;56847;51.984;5.088;2022-08-19T09:08:07;25.70;63.20
69626;DHT22;56847;51.984;5.088;2022-08-19T09:10:43;25.80;62.80
69626;DHT22;56847;51.984;5.088;2022-08-19T09:13:29;25.70;62.90
69626;DHT22;56847;51.984;5.088;2022-08-19T09:16:16;25.60;63.00
69626;DHT22;56847;51.984;5.088;2022-08-19T09:18:48;25.50;63.00
69626;DHT22;56847;51.984;5.088;2022-08-19T09:21:15;25.50;63.30
69626;DHT22;56847;51.984;5.088;2022-08-19T09:23:43;25.50;63.30
69626;DHT22;56847;51.984;5.088;2022-08-19T09:26:13;25.50;63.50
69626;DHT22;56847;51.984;5.088;2022-08-19T09:28:44;25.40;63.30
69626;DHT22;56847;51.984;5.088;2022-08-19T09:31:17;25.50;64.10
69626;DHT22;56847;51.984;5.088;2022-08-19T09:33:44;25.80;64.50
69626;DHT22;56847;51.984;5.088;2022-08-19T09:36:15;26.10;63.90
69626;DHT22;56847;51.984;5.088;2022-08-19T09:39:01;26.30;63.10
69626;DHT22;56847;51.984;5.088;2022-08-19T09:41:28;26.40;62.80
69626;DHT22;56847;51.984;5.088;2022-08-19T09:43:56;26.50;62.60
69626;DHT22;56847;51.984;5.088;2022-08-19T09:46:28;26.70;62.30
69626;DHT22;56847;51.984;5.088;2022-08-19T09:48:58;26.90;61.90
69626;DHT22;56847;51.984;5.088;2022-08-19T09:51:32;27.00;61.40
69626;DHT22;56847;51.984;5.088;2022-08-19T09:54:04;27.00;61.20
69626;DHT22;56847;51.984;5.088;2022-08-19T09:56:32;27.10;61.30
69626;DHT22;56847;51.984;5.088;2022-08-19T09:59:00;27.30;61.00
69626;DHT22;56847;51.984;5.088;2022-08-19T10:01:29;27.50;60.60
69626;DHT22;56847;51.984;5.088;2022-08-19T10:03:58;27.60;60.00
69626;DHT22;56847;51.984;5.088;2022-08-19T10:06:29;27.80;59.90
69626;DHT22;56847;51.984;5.088;2022-08-19T10:09:12;27.90;59.60
69626;DHT22;56847;51.984;5.088;2022-08-19T10:11:44;28.00;59.20
69626;DHT22;56847;51.984;5.088;2022-08-19T10:14:24;28.10;58.80
69626;DHT22;56847;51.984;5.088;2022-08-19T10:16:51;28.20;59.00
69626;DHT22;56847;51.984;5.088;2022-08-19T10:19:21;28.50;58.70
69626;DHT22;56847;51.984;5.088;2022-08-19T10:21:53;28.80;58.30
69626;DHT22;56847;51.984;5.088;2022-08-19T10:24:26;29.00;57.60
69626;DHT22;56847;51.984;5.088;2022-08-19T10:26:55;29.20;57.10
69626;DHT22;56847;51.984;5.088;2022-08-19T10:29:26;29.30;56.40
69626;DHT22;56847;51.984;5.088;2022-08-19T10:32:03;29.30;56.40
69626;DHT22;56847;51.984;5.088;2022-08-19T10:34:39;29.60;56.40
69626;DHT22;56847;51.984;5.088;2022-08-19T10:37:14;29.70;55.40
69626;DHT22;56847;51.984;5.088;2022-08-19T10:39:49;29.60;55.20
69626;DHT22;56847;51.984;5.088;2022-08-19T10:42:16;29.60;55.70
69626;DHT22;56847;51.984;5.088;2022-08-19T10:44:45;29.70;55.90
69626;DHT22;56847;51.984;5.088;2022-08-19T10:47:13;29.80;55.70
69626;DHT22;56847;51.984;5.088;2022-08-19T10:49:50;29.80;55.30
69626;DHT22;56847;51.984;5.088;2022-08-19T10:52:44;29.80;55.10
69626;DHT22;56847;51.984;5.088;2022-08-19T10:55:21;29.90;55.20
69626;DHT22;56847;51.984;5.088;2022-08-19T10:58:18;30.20;54.80
69626;DHT22;56847;51.984;5.088;2022-08-19T11:00:55;30.50;54.20
69626;DHT22;56847;51.984;5.088;2022-08-19T11:03:24;30.80;53.00
69626;DHT22;56847;51.984;5.088;2022-08-19T11:06:02;30.80;53.00
69626;DHT22;56847;51.984;5.088;2022-08-19T11:08:29;30.80;52.90
69626;DHT22;56847;51.984;5.088;2022-08-19T11:11:00;31.00;52.60
69626;DHT22;56847;51.984;5.088;2022-08-19T11:13:29;31.20;52.50
69626;DHT22;56847;51.984;5.088;2022-08-19T11:16:18;31.30;51.90
69626;DHT22;56847;51.984;5.088;2022-08-19T11:18:50;31.20;51.10
69626;DHT22;56847;51.984;5.088;2022-08-19T11:21:27;30.90;51.10
69626;DHT22;56847;51.984;5.088;2022-08-19T11:23:57;30.60;51.60
69626;DHT22;56847;51.984;5.088;2022-08-19T11:26:24;30.50;52.00
69626;DHT22;56847;51.984;5.088;2022-08-19T11:28:52;30.50;51.80
69626;DHT22;56847;51.984;5.088;2022-08-19T11:31:26;30.10;52.10
69626;DHT22;56847;51.984;5.088;2022-08-19T11:33:56;30.10;52.80
69626;DHT22;56847;51.984;5.088;2022-08-19T11:36:23;30.10;52.90
69626;DHT22;56847;51.984;5.088;2022-08-19T11:38:51;30.20;52.60
69626;DHT22;56847;51.984;5.088;2022-08-19T11:41:19;30.10;52.40
69626;DHT22;56847;51.984;5.088;2022-08-19T11:43:47;29.80;52.60
69626;DHT22;56847;51.984;5.088;2022-08-19T11:46:16;29.40;53.60
69626;DHT22;56847;51.984;5.088;2022-08-19T11:48:43;29.20;54.40
69626;DHT22;56847;51.984;5.088;2022-08-19T11:51:13;29.30;54.80
69626;DHT22;56847;51.984;5.088;2022-08-19T11:53:40;29.40;54.60
69626;DHT22;56847;51.984;5.088;2022-08-19T11:56:09;29.40;54.40
69626;DHT22;56847;51.984;5.088;2022-08-19T11:58:36;29.50;54.60
69626;DHT22;56847;51.984;5.088;2022-08-19T12:01:08;29.90;54.80
69626;DHT22;56847;51.984;5.088;2022-08-19T12:03:37;30.30;54.00
69626;DHT22;56847;51.984;5.088;2022-08-19T12:06:13;30.50;52.80
69626;DHT22;56847;51.984;5.088;2022-08-19T12:08:42;30.50;51.70
69626;DHT22;56847;51.984;5.088;2022-08-19T12:11:11;30.30;51.80
69626;DHT22;56847;51.984;5.088;2022-08-19T12:13:39;30.30;51.40
69626;DHT22;56847;51.984;5.088;2022-08-19T12:16:12;30.30;51.80
69626;DHT22;56847;51.984;5.088;2022-08-19T12:18:40;30.40;51.50
69626;DHT22;56847;51.984;5.088;2022-08-19T12:21:10;30.50;51.70
69626;DHT22;56847;51.984;5.088;2022-08-19T12:23:39;30.50;51.40
69626;DHT22;56847;51.984;5.088;2022-08-19T12:26:06;30.40;51.50
69626;DHT22;56847;51.984;5.088;2022-08-19T12:28:34;30.30;51.40
69626;DHT22;56847;51.984;5.088;2022-08-19T12:31:01;30.10;51.80
69626;DHT22;56847;51.984;5.088;2022-08-19T12:33:28;30.10;52.10
69626;DHT22;56847;51.984;5.088;2022-08-19T12:36:04;30.20;52.10
69626;DHT22;56847;51.984;5.088;2022-08-19T12:38:32;30.20;51.80
69626;DHT22;56847;51.984;5.088;2022-08-19T12:41:01;30.10;51.70
69626;DHT22;56847;51.984;5.088;2022-08-19T12:43:33;29.80;51.50
69626;DHT22;56847;51.984;5.088;2022-08-19T12:46:02;29.50;51.90
69626;DHT22;56847;51.984;5.088;2022-08-19T12:48:34;29.20;52.90
69626;DHT22;56847;51.984;5.088;2022-08-19T12:51:06;28.90;54.40
69626;DHT22;56847;51.984;5.088;2022-08-19T12:53:33;28.40;56.30
69626;DHT22;56847;51.984;5.088;2022-08-19T12:56:05;27.70;58.60
69626;DHT22;56847;51.984;5.088;2022-08-19T12:58:38;26.90;60.90
69626;DHT22;56847;51.984;5.088;2022-08-19T13:01:14;26.40;63.20
69626;DHT22;56847;51.984;5.088;2022-08-19T13:03:45;26.10;65.30
69626;DHT22;56847;51.984;5.088;2022-08-19T13:06:16;25.90;66.20
69626;DHT22;56847;51.984;5.088;2022-08-19T13:08:46;25.70;67.30
69626;DHT22;56847;51.984;5.088;2022-08-19T13:11:18;25.50;67.60
69626;DHT22;56847;51.984;5.088;2022-08-19T13:13:47;25.30;68.10
69626;DHT22;56847;51.984;5.088;2022-08-19T13:16:15;25.10;68.40
69626;DHT22;56847;51.984;5.088;2022-08-19T13:18:44;24.90;69.40
69626;DHT22;56847;51.984;5.088;2022-08-19T13:21:13;24.70;70.30
69626;DHT22;56847;51.984;5.088;2022-08-19T13:23:40;24.50;71.10
69626;DHT22;56847;51.984;5.088;2022-08-19T13:26:08;24.20;71.60
69626;DHT22;56847;51.984;5.088;2022-08-19T13:28:36;24.00;72.70
69626;DHT22;56847;51.984;5.088;2022-08-19T13:31:23;23.70;73.90
69626;DHT22;56847;51.984;5.088;2022-08-19T13:34:09;23.50;75.20
69626;DHT22;56847;51.984;5.088;2022-08-19T13:36:37;23.60;76.50
69626;DHT22;56847;51.984;5.088;2022-08-19T13:39:06;23.70;76.40
69626;DHT22;56847;51.984;5.088;2022-08-19T13:41:35;23.70;76.40
69626;DHT22;56847;51.984;5.088;2022-08-19T13:44:04;23.60;76.30
69626;DHT22;56847;51.984;5.088;2022-08-19T13:46:32;23.60;76.60
69626;DHT22;56847;51.984;5.088;2022-08-19T13:48:59;23.50;76.60
69626;DHT22;56847;51.984;5.088;2022-08-19T13:51:26;23.40;76.90
69626;DHT22;56847;51.984;5.088;2022-08-19T13:53:53;23.30;77.00
69626;DHT22;56847;51.984;5.088;2022-08-19T13:56:22;23.30;77.10
69626;DHT22;56847;51.984;5.088;2022-08-19T13:58:52;23.20;77.60
69626;DHT22;56847;51.984;5.088;2022-08-19T14:01:27;23.20;78.30
69626;DHT22;56847;51.984;5.088;2022-08-19T14:03:55;23.40;78.30
69626;DHT22;56847;51.984;5.088;2022-08-19T14:06:22;23.50;78.40
69626;DHT22;56847;51.984;5.088;2022-08-19T14:08:50;23.60;78.40
69626;DHT22;56847;51.984;5.088;2022-08-19T14:11:18;23.80;78.30
69626;DHT22;56847;51.984;5.088;2022-08-19T14:13:45;23.90;78.40
69626;DHT22;56847;51.984;5.088;2022-08-19T14:16:13;24.30;78.80
69626;DHT22;56847;51.984;5.088;2022-08-19T14:18:42;24.70;78.40
69626;DHT22;56847;51.984;5.088;2022-08-19T14:21:15;25.00;78.00
69626;DHT22;56847;51.984;5.088;2022-08-19T14:23:43;25.30;76.80
69626;DHT22;56847;51.984;5.088;2022-08-19T14:26:14;25.50;76.30
69626;DHT22;56847;51.984;5.088;2022-08-19T14:28:42;25.70;75.80
69626;DHT22;56847;51.984;5.088;2022-08-19T14:31:11;25.80;75.30
69626;DHT22;56847;51.984;5.088;2022-08-19T14:33:40;25.90;74.90
69626;DHT22;56847;51.984;5.088;2022-08-19T14:36:07;26.00;74.70
69626;DHT22;56847;51.984;5.088;2022-08-19T14:38:34;26.20;74.40
69626;DHT22;56847;51.984;5.088;2022-08-19T14:41:11;26.30;74.20
69626;DHT22;56847;51.984;5.088;2022-08-19T14:43:38;26.60;73.80
69626;DHT22;56847;51.984;5.088;2022-08-19T14:46:06;26.80;74.10
69626;DHT22;56847;51.984;5.088;2022-08-19T14:48:36;27.00;74.00
69626;DHT22;56847;51.984;5.088;2022-08-19T14:51:07;27.20;73.80
69626;DHT22;56847;51.984;5.088;2022-08-19T14:53:35;27.50;73.40
69626;DHT22;56847;51.984;5.088;2022-08-19T14:56:14;27.80;73.10
69626;DHT22;56847;51.984;5.088;2022-08-19T14:58:42;28.00;72.40
69626;DHT22;56847;51.984;5.088;2022-08-19T15:01:10;28.00;70.90
69626;DHT22;56847;51.984;5.088;2022-08-19T15:03:38;27.70;69.70
69626;DHT22;56847;51.984;5.088;2022-08-19T15:06:08;27.40;69.70
69626;DHT22;56847;51.984;5.088;2022-08-19T15:08:39;27.10;69.80
69626;DHT22;56847;51.984;5.088;2022-08-19T15:11:13;26.90;70.00
69626;DHT22;56847;51.984;5.088;2022-08-19T15:13:42;26.80;70.50
69626;DHT22;56847;51.984;5.088;2022-08-19T15:16:10;26.90;71.00
69626;DHT22;56847;51.984;5.088;2022-08-19T15:18:44;27.00;70.90
69626;DHT22;56847;51.984;5.088;2022-08-19T15:21:13;27.10;70.70
69626;DHT22;56847;51.984;5.088;2022-08-19T15:23:41;27.10;70.50
69626;DHT22;56847;51.984;5.088;2022-08-19T15:26:14;27.00;70.40
69626;DHT22;56847;51.984;5.088;2022-08-19T15:28:42;27.00;71.00
69626;DHT22;56847;51.984;5.088;2022-08-19T15:31:10;27.10;70.90
69626;DHT22;56847;51.984;5.088;2022-08-19T15:33:51;27.20;71.00
69626;DHT22;56847;51.984;5.088;2022-08-19T15:36:18;27.40;70.40
69626;DHT22;56847;51.984;5.088;2022-08-19T15:38:45;27.40;69.60
69626;DHT22;56847;51.984;5.088;2022-08-19T15:41:20;27.40;70.00
69626;DHT22;56847;51.984;5.088;2022-08-19T15:43:59;27.60;69.20
69626;DHT22;56847;51.984;5.088;2022-08-19T15:46:28;27.70;68.30
69626;DHT22;56847;51.984;5.088;2022-08-19T15:48:56;27.80;68.50
69626;DHT22;56847;51.984;5.088;2022-08-19T15:51:29;27.90;68.20
69626;DHT22;56847;51.984;5.088;2022-08-19T15:53:59;28.00;67.90
69626;DHT22;56847;51.984;5.088;2022-08-19T15:56:26;27.90;66.50
69626;DHT22;56847;51.984;5.088;2022-08-19T15:59:24;27.70;67.10
69626;DHT22;56847;51.984;5.088;2022-08-19T16:02:13;27.40;66.10
69626;DHT22;56847;51.984;5.088;2022-08-19T16:04:59;27.10;67.00
69626;DHT22;56847;51.984;5.088;2022-08-19T16:07:45;26.80;67.50
69626;DHT22;56847;51.984;5.088;2022-08-19T16:10:13;26.60;68.40
69626;DHT22;56847;51.984;5.088;2022-08-19T16:12:57;26.50;68.70
69626;DHT22;56847;51.984;5.088;2022-08-19T16:15:26;26.40;69.00
69626;DHT22;56847;51.984;5.088;2022-08-19T16:17:54;26.30;68.80
69626;DHT22;56847;51.984;5.088;2022-08-19T16:20:25;26.30;69.00
69626;DHT22;56847;51.984;5.088;2022-08-19T16:22:54;26.30;68.80
69626;DHT22;56847;51.984;5.088;2022-08-19T16:25:24;26.10;68.20
69626;DHT22;56847;51.984;5.088;2022-08-19T16:27:55;25.90;68.70
69626;DHT22;56847;51.984;5.088;2022-08-19T16:30:36;25.60;70.20
69626;DHT22;56847;51.984;5.088;2022-08-19T16:33:03;25.50;71.10
69626;DHT22;56847;51.984;5.088;2022-08-19T16:35:30;25.40;71.60
69626;DHT22;56847;51.984;5.088;2022-08-19T16:37:57;25.20;72.30
69626;DHT22;56847;51.984;5.088;2022-08-19T16:40:24;25.20;72.90
69626;DHT22;56847;51.984;5.088;2022-08-19T16:42:51;25.10;73.30
69626;DHT22;56847;51.984;5.088;2022-08-19T16:45:19;25.00;73.00
69626;DHT22;56847;51.984;5.088;2022-08-19T16:47:47;24.90;73.30
69626;DHT22;56847;51.984;5.088;2022-08-19T16:50:14;24.80;73.40
69626;DHT22;56847;51.984;5.088;2022-08-19T16:52:50;24.80;73.80
69626;DHT22;56847;51.984;5.088;2022-08-19T16:55:17;24.80;73.70
69626;DHT22;56847;51.984;5.088;2022-08-19T16:57:46;24.70;73.40
69626;DHT22;56847;51.984;5.088;2022-08-19T17:00:13;24.60;73.40
69626;DHT22;56847;51.984;5.088;2022-08-19T17:02:40;24.50;73.50
69626;DHT22;56847;51.984;5.088;2022-08-19T17:05:08;24.40;73.60
69626;DHT22;56847;51.984;5.088;2022-08-19T17:07:38;24.40;74.00